Time;durP1;ratioP1;P1;durP2;ratioP2;P2;SDS_P1;SDS_P2;PMS_P1;PMS_P2;Temp;Humidity;BMP_temperature;BMP_pressure;BME280_temperature;BME280_humidity;BME280_pressure;Samples;Min_cycle;Max_cycle;Signal;HPM_P1;HPM_P2
2022/08/23 00:04:03;;;;;;;2.88;1.02;;;20.30;99.90;;;;;;20773935;28;20045;-82
2022/08/23 00:14:35;;;;;;;2.13;1.13;;;20.20;99.90;;;;;;20757240;28;20561;-82
2022/08/23 00:24:37;;;;;;;1.95;1.33;;;20.10;99.90;;;;;;20792605;28;21670;-82
2022/08/23 00:34:39;;;;;;;3.25;1.35;;;20.00;99.90;;;;;;20774000;28;20485;-82
2022/08/23 00:55:00;;;;;;;1.90;0.85;;;19.70;99.90;;;;;;20810296;28;20044;-82
2022/08/23 01:05:03;;;;;;;1.40;0.80;;;19.70;99.90;;;;;;20811953;28;20057;-82
2022/08/23 01:15:05;;;;;;;2.28;1.40;;;19.60;99.90;;;;;;20778972;28;20076;-82
2022/08/23 01:25:11;;;;;;;2.03;0.98;;;19.70;99.90;;;;;;20783060;28;20524;-82
2022/08/23 01:35:13;;;;;;;2.38;1.05;;;19.70;99.90;;;;;;20775512;28;20033;-82
2022/08/23 01:45:14;;;;;;;3.03;1.52;;;19.50;99.90;;;;;;20785137;28;20052;-82
2022/08/23 01:55:16;;;;;;;2.10;1.23;;;19.30;99.90;;;;;;20813153;28;20401;-82
2022/08/23 02:05:18;;;;;;;2.63;1.45;;;19.20;99.90;;;;;;20785649;28;20099;-82
2022/08/23 02:15:19;;;;;;;2.08;1.40;;;19.10;99.90;;;;;;20782799;28;20104;-82
2022/08/23 02:25:20;;;;;;;7.68;1.60;;;19.00;99.90;;;;;;20798817;28;20033;-82
2022/08/23 02:35:21;;;;;;;1.73;1.10;;;19.00;99.90;;;;;;20790787;28;20046;-82
2022/08/23 02:45:22;;;;;;;3.88;1.80;;;18.90;99.90;;;;;;20800772;28;20534;-83
2022/08/23 02:55:24;;;;;;;2.00;1.15;;;18.80;99.90;;;;;;20792835;28;20045;-82
2022/08/23 03:05:25;;;;;;;3.22;1.08;;;18.70;99.90;;;;;;20793141;28;20041;-82
2022/08/23 03:15:26;;;;;;;9.50;1.20;;;18.70;99.90;;;;;;20804425;28;20575;-82
2022/08/23 03:25:27;;;;;;;2.03;1.20;;;18.70;99.90;;;;;;20829314;28;20485;-82
2022/08/23 03:35:29;;;;;;;2.25;1.23;;;18.70;99.90;;;;;;20793369;28;20466;-82
2022/08/23 03:45:30;;;;;;;1.98;1.10;;;18.80;99.90;;;;;;20790743;28;20088;-82
2022/08/23 03:55:31;;;;;;;2.97;1.17;;;18.80;99.90;;;;;;20793824;28;20108;-82
2022/08/23 04:05:32;;;;;;;3.78;0.95;;;18.90;99.90;;;;;;20789386;28;20075;-82
2022/08/23 04:15:34;;;;;;;2.85;1.55;;;18.80;99.90;;;;;;20807205;28;20497;-82
2022/08/23 04:25:35;;;;;;;1.95;1.10;;;18.90;99.90;;;;;;20797597;28;20034;-82
2022/08/23 04:35:36;;;;;;;4.00;1.13;;;18.90;99.90;;;;;;20809930;28;20100;-82
2022/08/23 04:45:38;;;;;;;3.22;0.90;;;18.90;99.90;;;;;;20797320;28;20029;-82
2022/08/23 04:55:39;;;;;;;1.98;1.05;;;18.90;99.90;;;;;;20806362;28;20032;-82
2022/08/23 05:05:40;;;;;;;1.95;1.17;;;18.90;99.90;;;;;;20797906;28;20033;-83
2022/08/23 05:15:43;;;;;;;2.65;1.42;;;18.90;99.90;;;;;;20800643;28;20032;-82
2022/08/23 05:25:49;;;;;;;1.85;1.00;;;18.90;99.90;;;;;;20789726;28;20075;-82
2022/08/23 05:35:52;;;;;;;2.80;1.10;;;19.00;99.90;;;;;;20808044;28;20052;-82
2022/08/23 05:46:05;;;;;;;2.67;1.08;;;19.00;99.90;;;;;;20781106;28;20033;-82
2022/08/23 05:56:16;;;;;;;2.63;0.85;;;19.10;99.90;;;;;;20784412;28;20640;-82
2022/08/23 06:06:19;;;;;;;2.08;0.80;;;19.20;99.90;;;;;;20822680;28;20029;-82
2022/08/23 06:16:23;;;;;;;1.85;0.70;;;19.40;99.90;;;;;;20793903;28;20034;-82
2022/08/23 06:26:29;;;;;;;2.35;1.50;;;19.70;99.90;;;;;;20795423;28;20091;-82
2022/08/23 06:36:30;;;;;;;3.25;1.70;;;19.90;99.90;;;;;;20822720;28;20103;-82
2022/08/23 06:46:32;;;;;;;3.70;1.20;;;20.50;99.90;;;;;;20794033;28;20026;-82
2022/08/23 06:56:35;;;;;;;2.45;1.40;;;21.00;99.90;;;;;;20790115;28;20029;-82
2022/08/23 07:06:36;;;;;;;2.88;1.08;;;21.40;99.90;;;;;;20785946;28;20034;-82
2022/08/23 07:16:40;;;;;;;2.50;1.08;;;21.40;99.90;;;;;;20782791;28;20084;-82
2022/08/23 07:26:43;;;;;;;2.92;1.42;;;21.40;99.90;;;;;;20814441;28;20643;-81
2022/08/23 07:36:46;;;;;;;2.55;1.23;;;21.60;99.90;;;;;;20807694;28;20037;-82
2022/08/23 07:46:47;;;;;;;3.38;1.92;;;21.90;99.90;;;;;;20801933;28;20175;-82
2022/08/23 07:56:48;;;;;;;3.75;1.92;;;22.00;99.90;;;;;;20777302;28;20034;-82
2022/08/23 08:06:50;;;;;;;4.65;1.73;;;22.30;99.90;;;;;;20775614;28;20041;-82
2022/08/23 08:16:52;;;;;;;4.72;2.00;;;22.40;99.90;;;;;;20791314;28;20033;-81
2022/08/23 08:26:53;;;;;;;4.40;1.85;;;22.50;99.90;;;;;;20792170;28;20032;-81
2022/08/23 08:36:57;;;;;;;4.38;1.85;;;22.60;99.90;;;;;;20778236;28;20679;-81
2022/08/23 08:46:58;;;;;;;4.35;1.63;;;23.10;99.90;;;;;;20780939;28;20033;-81
2022/08/23 08:57:00;;;;;;;2.88;1.67;;;23.60;99.90;;;;;;20765223;28;20029;-81
2022/08/23 09:07:27;;;;;;;2.78;1.08;;;24.00;99.90;;;;;;20778250;28;20101;-81
2022/08/23 09:17:37;;;;;;;1.83;1.10;;;24.60;99.90;;;;;;20774265;28;20477;-81
2022/08/23 09:27:42;;;;;;;5.85;1.17;;;24.70;99.90;;;;;;20781321;28;20640;-81
2022/08/23 09:38:02;;;;;;;1.88;0.88;;;24.80;99.90;;;;;;20785005;28;20119;-81
2022/08/23 09:48:05;;;;;;;1.20;0.68;;;25.10;99.90;;;;;;20783452;28;20039;-81
2022/08/23 09:58:20;;;;;;;1.63;0.60;;;26.00;99.90;;;;;;20788444;28;20771;-81
2022/08/23 10:08:33;;;;;;;1.23;0.60;;;26.60;99.90;;;;;;20801836;28;20088;-81
2022/08/23 10:18:58;;;;;;;2.33;0.88;;;26.60;99.90;;;;;;20785727;28;20048;-81
2022/08/23 10:39:27;;;;;;;3.85;1.67;;;27.40;99.90;;;;;;20810449;28;20718;-81
2022/08/23 10:49:28;;;;;;;2.30;0.67;;;27.90;99.90;;;;;;20814523;28;20034;-81
2022/08/23 10:59:31;;;;;;;2.45;0.65;;;28.10;99.90;;;;;;20793195;28;20091;-81
2022/08/23 11:09:45;;;;;;;1.35;0.57;;;27.70;99.90;;;;;;20791576;28;20543;-81
2022/08/23 11:19:55;;;;;;;2.05;0.57;;;27.50;99.90;;;;;;20805170;28;20427;-81
2022/08/23 11:29:56;;;;;;;1.33;0.70;;;27.90;99.90;;;;;;20788807;28;20775;-81
2022/08/23 11:39:57;;;;;;;3.83;0.90;;;27.60;99.90;;;;;;20796761;28;20053;-81
2022/08/23 11:50:29;;;;;;;2.05;0.40;;;28.30;99.90;;;;;;20793013;28;20025;-81
2022/08/23 12:00:52;;;;;;;2.38;0.50;;;28.50;99.90;;;;;;20802326;28;20639;-82
2022/08/23 12:10:52;;;;;;;1.02;0.40;;;29.10;99.60;;;;;;20819283;28;20030;-82
2022/08/23 12:20:57;;;;;;;1.65;0.57;;;29.70;98.40;;;;;;20785881;28;20041;-81
2022/08/23 12:31:06;;;;;;;6.30;1.85;;;29.70;99.00;;;;;;20786940;28;20079;-81
2022/08/23 12:41:20;;;;;;;1.85;0.77;;;29.80;99.90;;;;;;20688145;28;20688;-81
2022/08/23 12:51:20;;;;;;;2.00;0.70;;;29.90;99.40;;;;;;20693727;28;20097;-81
2022/08/23 13:01:27;;;;;;;1.60;0.90;;;30.00;99.00;;;;;;20696390;28;20042;-81
2022/08/23 13:11:32;;;;;;;2.15;0.70;;;29.50;99.00;;;;;;20695187;28;20038;-81
2022/08/23 13:21:33;;;;;;;1.42;0.93;;;29.30;98.80;;;;;;20683434;28;20046;-81
2022/08/23 13:31:58;;;;;;;2.03;1.00;;;28.70;99.90;;;;;;20679523;28;20033;-81
2022/08/23 13:41:59;;;;;;;1.02;0.57;;;28.70;99.90;;;;;;20812129;28;20052;-81
2022/08/23 13:52:07;;;;;;;2.70;1.13;;;29.30;99.90;;;;;;20806993;28;20083;-81
2022/08/23 14:02:13;;;;;;;1.67;1.13;;;29.80;99.30;;;;;;20798269;28;20451;-81
2022/08/23 14:12:18;;;;;;;4.40;1.52;;;30.10;98.80;;;;;;20790370;28;20546;-81
2022/08/23 14:22:19;;;;;;;1.88;0.80;;;30.00;99.50;;;;;;20794641;28;20111;-81
2022/08/23 14:32:20;;;;;;;2.25;1.08;;;30.20;99.10;;;;;;20805085;28;20030;-81
2022/08/23 14:42:21;;;;;;;1.88;0.82;;;29.80;99.30;;;;;;20791226;28;20058;-81
2022/08/23 14:52:22;;;;;;;1.65;0.73;;;29.20;99.90;;;;;;20812959;28;20033;-81
2022/08/23 15:02:26;;;;;;;1.52;0.60;;;29.00;99.90;;;;;;20833783;28;20091;-81
2022/08/23 15:12:27;;;;;;;1.27;0.60;;;28.90;99.90;;;;;;20805097;28;20033;-81
2022/08/23 15:22:28;;;;;;;3.38;1.67;;;28.70;99.90;;;;;;20812991;28;20776;-81
2022/08/23 15:32:29;;;;;;;1.40;0.65;;;28.60;99.90;;;;;;20812448;28;20029;-81
2022/08/23 15:42:30;;;;;;;1.25;0.60;;;28.30;99.90;;;;;;20834948;28;20045;-81
2022/08/23 15:52:31;;;;;;;1.65;0.85;;;28.40;99.90;;;;;;20809910;28;20090;-81
2022/08/23 16:02:33;;;;;;;1.75;0.90;;;28.20;99.90;;;;;;20821231;28;20041;-81
2022/08/23 16:12:34;;;;;;;1.50;0.82;;;28.00;99.90;;;;;;20813276;28;20045;-81
2022/08/23 16:22:36;;;;;;;3.03;1.02;;;27.70;99.90;;;;;;20801748;28;20044;-81
2022/08/23 16:32:37;;;;;;;2.08;0.80;;;27.60;99.90;;;;;;20826249;28;20030;-80
2022/08/23 16:42:38;;;;;;;2.20;0.88;;;27.00;99.90;;;;;;20797363;28;20053;-80
2022/08/23 16:52:39;;;;;;;2.47;0.82;;;26.60;99.90;;;;;;20822203;28;20068;-80
2022/08/23 17:02:41;;;;;;;2.92;1.35;;;26.30;99.90;;;;;;20798747;28;20081;-80
2022/08/23 17:12:45;;;;;;;1.42;0.93;;;26.10;99.90;;;;;;20814002;28;20021;-80
2022/08/23 17:22:46;;;;;;;2.42;0.80;;;25.90;99.90;;;;;;20831850;28;20034;-80
2022/08/23 17:32:48;;;;;;;5.93;0.93;;;25.60;99.90;;;;;;20820227;28;20431;-80
2022/08/23 17:42:49;;;;;;;1.90;0.77;;;25.50;99.90;;;;;;20825000;28;20037;-80
2022/08/23 17:52:50;;;;;;;1.50;0.70;;;25.30;99.90;;;;;;20818734;28;20168;-80
2022/08/23 18:02:52;;;;;;;2.47;0.90;;;25.10;99.90;;;;;;20820106;28;20037;-80
2022/08/23 18:12:55;;;;;;;1.33;0.82;;;24.80;99.90;;;;;;20814502;28;20037;-80
2022/08/23 18:22:57;;;;;;;2.75;1.23;;;24.60;99.90;;;;;;20832318;28;20906;-80
2022/08/23 18:32:59;;;;;;;1.52;0.63;;;24.40;99.90;;;;;;20798976;28;20053;-80
2022/08/23 18:43:00;;;;;;;1.40;0.70;;;24.20;99.90;;;;;;20836591;28;20041;-81
2022/08/23 18:53:01;;;;;;;4.88;0.63;;;24.00;99.90;;;;;;20788463;28;20048;-81
2022/08/23 19:03:04;;;;;;;1.58;1.00;;;23.90;99.90;;;;;;20790780;28;20038;-80
2022/08/23 19:13:07;;;;;;;1.40;0.63;;;23.60;99.90;;;;;;20800742;28;21969;-80
2022/08/23 19:23:08;;;;;;;1.98;0.90;;;23.40;99.90;;;;;;20793698;28;20472;-80
2022/08/23 19:33:09;;;;;;;2.33;0.80;;;23.20;99.90;;;;;;20786020;28;20083;-82
2022/08/23 19:43:11;;;;;;;1.92;1.10;;;23.20;99.90;;;;;;20809209;28;20044;-83
2022/08/23 19:53:12;;;;;;;1.60;0.73;;;22.90;99.90;;;;;;20808946;28;20199;-81
2022/08/23 20:03:13;;;;;;;1.88;1.00;;;22.70;99.90;;;;;;20806844;28;20482;-83
2022/08/23 20:13:14;;;;;;;2.15;1.10;;;22.60;99.90;;;;;;20827444;28;20583;-81
2022/08/23 20:33:35;;;;;;;2.20;0.80;;;22.40;99.90;;;;;;20816433;28;20800;-80
2022/08/23 20:43:37;;;;;;;1.65;0.68;;;22.20;99.90;;;;;;20808431;28;20569;-80
2022/08/23 20:53:38;;;;;;;1.27;0.52;;;22.00;99.90;;;;;;20801430;28;20030;-81
2022/08/23 21:03:39;;;;;;;1.48;0.63;;;21.80;99.90;;;;;;20799413;28;20039;-83
2022/08/23 21:13:42;;;;;;;1.95;0.70;;;21.70;99.90;;;;;;20818873;28;20637;-81
2022/08/23 21:23:44;;;;;;;3.08;1.17;;;21.50;99.90;;;;;;20804039;28;20045;-81
2022/08/23 21:33:45;;;;;;;1.73;0.73;;;21.40;99.90;;;;;;20802611;28;20042;-83
2022/08/23 21:43:46;;;;;;;1.60;0.98;;;21.30;99.90;;;;;;20812583;28;20530;-83
2022/08/23 21:53:47;;;;;;;2.67;0.82;;;21.20;99.90;;;;;;20854806;28;20039;-80
2022/08/23 22:03:48;;;;;;;2.97;1.00;;;21.10;99.90;;;;;;20770581;28;20075;-80
2022/08/23 22:13:51;;;;;;;1.20;0.60;;;21.10;99.90;;;;;;20852779;28;20017;-80
2022/08/23 22:23:52;;;;;;;3.97;1.35;;;20.90;99.90;;;;;;20810050;28;20038;-80
2022/08/23 22:33:53;;;;;;;1.73;0.93;;;20.80;99.90;;;;;;20821222;28;20053;-81
2022/08/23 22:43:56;;;;;;;3.05;1.20;;;20.70;99.90;;;;;;20832821;28;20050;-80
2022/08/23 22:54:00;;;;;;;1.38;0.75;;;20.70;99.90;;;;;;20787684;28;20030;-81
2022/08/23 23:04:04;;;;;;;2.38;1.27;;;20.60;99.90;;;;;;20781083;28;20050;-81
2022/08/23 23:14:06;;;;;;;2.22;0.70;;;20.50;99.90;;;;;;20799927;28;20702;-81
2022/08/23 23:24:09;;;;;;;2.88;1.50;;;20.40;99.90;;;;;;20793823;28;20645;-81
2022/08/23 23:34:11;;;;;;;3.55;1.60;;;20.40;99.90;;;;;;20802086;28;20034;-81
2022/08/23 23:44:12;;;;;;;2.88;1.30;;;20.30;99.90;;;;;;20773832;28;20041;-81
2022/08/23 23:54:13;;;;;;;2.63;1.70;;;20.30;99.90;;;;;;20789872;28;20029;-81
